Time;durP1;ratioP1;P1;durP2;ratioP2;P2;SDS_P1;SDS_P2;PMS_P1;PMS_P2;Temp;Humidity;BMP_temperature;BMP_pressure;BME280_temperature;BME280_humidity;BME280_pressure;Samples;Min_cycle;Max_cycle;Signal;HPM_P1;HPM_P2
2024/01/19 00:02:14;;;;;;;13.45;5.22;;;;;;;;;;5029912;28;20025;-77
2024/01/19 00:04:41;;;;;;;21.77;5.57;;;;;;;;;;5011682;28;20061;-76
2024/01/19 00:07:07;;;;;;;16.02;5.57;;;;;;;;;;5014825;28;20026;-76
2024/01/19 00:09:34;;;;;;;29.73;6.13;;;;;;;;;;5024208;28;20127;-78
2024/01/19 00:12:00;;;;;;;21.90;7.55;;;;;;;;;;5007332;28;20125;-76
2024/01/19 00:14:28;;;;;;;17.38;7.53;;;;;;;;;;5006303;28;20023;-77
2024/01/19 00:16:54;;;;;;;12.30;4.95;;;;;;;;;;5006055;28;20148;-76
2024/01/19 00:19:20;;;;;;;15.45;5.45;;;;;;;;;;5010696;28;20033;-76
2024/01/19 00:21:47;;;;;;;15.10;5.38;;;;;;;;;;5006265;28;20034;-76
2024/01/19 00:24:13;;;;;;;16.52;5.50;;;;;;;;;;5011791;28;20034;-78
2024/01/19 00:26:40;;;;;;;18.05;6.47;;;;;;;;;;5012879;28;20491;-77
2024/01/19 00:29:06;;;;;;;15.40;5.30;;;;;;;;;;5011276;28;20597;-76
2024/01/19 00:31:33;;;;;;;20.40;7.40;;;;;;;;;;5013642;28;20124;-76
2024/01/19 00:33:59;;;;;;;27.75;7.05;;;;;;;;;;5014918;28;20036;-76
2024/01/19 00:36:25;;;;;;;13.35;5.38;;;;;;;;;;5006865;28;20035;-77
2024/01/19 00:38:54;;;;;;;20.42;6.30;;;;;;;;;;4992367;28;20049;-77
2024/01/19 00:41:21;;;;;;;20.67;6.00;;;;;;;;;;5017085;28;20037;-76
2024/01/19 00:43:47;;;;;;;19.95;5.20;;;;;;;;;;5022966;28;20112;-76
2024/01/19 00:46:13;;;;;;;20.25;5.80;;;;;;;;;;5015929;28;20321;-77
2024/01/19 00:48:39;;;;;;;13.38;4.32;;;;;;;;;;5015534;28;20375;-76
2024/01/19 00:51:06;;;;;;;22.92;5.88;;;;;;;;;;5012288;28;20085;-77
2024/01/19 00:53:32;;;;;;;11.82;3.33;;;;;;;;;;5011908;28;20409;-77
2024/01/19 00:55:58;;;;;;;16.33;5.13;;;;;;;;;;5019125;28;20119;-77
2024/01/19 00:58:24;;;;;;;19.05;5.00;;;;;;;;;;5017508;28;20017;-76
2024/01/19 01:00:51;;;;;;;10.25;4.05;;;;;;;;;;5015154;28;20048;-78
2024/01/19 01:03:28;;;;;;;13.57;4.07;;;;;;;;;;5018407;28;20041;-76
2024/01/19 01:05:59;;;;;;;8.88;3.88;;;;;;;;;;5016104;28;20113;-77
2024/01/19 01:08:25;;;;;;;;;;;;;;;;;;5017649;28;20055;-75
2024/01/19 01:10:52;;;;;;;11.60;4.03;;;;;;;;;;5011679;28;19971;-76
2024/01/19 01:13:18;;;;;;;14.77;5.35;;;;;;;;;;5013438;28;20053;-77
2024/01/19 01:15:45;;;;;;;13.25;4.03;;;;;;;;;;5019119;28;20049;-76
2024/01/19 01:18:11;;;;;;;10.07;4.50;;;;;;;;;;5006649;28;20049;-76
2024/01/19 01:20:38;;;;;;;12.43;4.07;;;;;;;;;;5017141;28;20188;-76
2024/01/19 01:23:05;;;;;;;20.08;5.78;;;;;;;;;;5016958;28;20072;-76
2024/01/19 01:25:32;;;;;;;13.75;5.07;;;;;;;;;;5020619;28;20037;-77
2024/01/19 01:27:58;;;;;;;15.75;4.55;;;;;;;;;;5011274;28;20065;-76
2024/01/19 01:30:24;;;;;;;13.20;4.40;;;;;;;;;;5013312;28;20043;-77
2024/01/19 01:32:50;;;;;;;13.32;5.38;;;;;;;;;;5015159;28;20128;-76
2024/01/19 01:35:16;;;;;;;10.38;4.97;;;;;;;;;;5010444;28;20137;-75
2024/01/19 01:37:42;;;;;;;15.25;4.60;;;;;;;;;;5010285;28;20014;-77
2024/01/19 01:40:10;;;;;;;15.63;7.18;;;;;;;;;;5010455;28;20034;-77
2024/01/19 01:42:36;;;;;;;15.15;7.00;;;;;;;;;;5014782;28;20057;-77
2024/01/19 01:45:03;;;;;;;19.13;6.15;;;;;;;;;;5017338;28;20037;-76
2024/01/19 01:47:30;;;;;;;13.43;6.90;;;;;;;;;;5010274;28;20156;-76
2024/01/19 01:49:56;;;;;;;11.10;5.90;;;;;;;;;;5013208;28;20030;-76
2024/01/19 01:52:22;;;;;;;18.30;6.55;;;;;;;;;;5015417;28;20371;-76
2024/01/19 01:54:48;;;;;;;20.17;6.45;;;;;;;;;;5012381;28;20052;-77
2024/01/19 01:57:15;;;;;;;12.75;6.38;;;;;;;;;;5017019;28;20021;-76
2024/01/19 01:59:42;;;;;;;17.65;7.50;;;;;;;;;;5009708;28;20061;-76
2024/01/19 02:02:08;;;;;;;14.30;6.40;;;;;;;;;;5012198;28;20036;-76
2024/01/19 02:04:34;;;;;;;22.23;7.15;;;;;;;;;;5005313;28;20033;-76
2024/01/19 02:07:01;;;;;;;22.25;7.63;;;;;;;;;;5020903;28;20088;-75
2024/01/19 02:09:27;;;;;;;25.35;9.52;;;;;;;;;;5010036;28;20034;-76
2024/01/19 02:11:54;;;;;;;21.70;8.85;;;;;;;;;;5006192;28;20045;-76
2024/01/19 02:14:20;;;;;;;27.67;8.52;;;;;;;;;;5010817;28;20045;-76
2024/01/19 02:16:46;;;;;;;25.90;9.02;;;;;;;;;;5017896;28;20049;-75
2024/01/19 02:19:12;;;;;;;23.83;7.72;;;;;;;;;;5015298;28;20044;-75
2024/01/19 02:21:38;;;;;;;27.00;8.27;;;;;;;;;;5016103;28;20079;-76
2024/01/19 02:24:05;;;;;;;26.42;7.68;;;;;;;;;;5012573;28;20033;-76
2024/01/19 02:26:32;;;;;;;22.33;8.05;;;;;;;;;;5012279;28;20244;-76
2024/01/19 02:28:58;;;;;;;27.23;8.40;;;;;;;;;;5010666;28;20072;-76
2024/01/19 02:31:24;;;;;;;22.65;7.03;;;;;;;;;;5010253;28;20065;-76
2024/01/19 02:33:51;;;;;;;33.35;8.18;;;;;;;;;;5011781;28;20041;-77
2024/01/19 02:36:17;;;;;;;28.27;7.72;;;;;;;;;;5015574;28;20022;-76
2024/01/19 02:38:44;;;;;;;32.30;8.77;;;;;;;;;;5010338;28;20060;-76
2024/01/19 02:41:10;;;;;;;35.50;9.50;;;;;;;;;;5006260;28;20033;-76
2024/01/19 02:43:36;;;;;;;21.38;6.63;;;;;;;;;;5009896;28;20109;-76
2024/01/19 02:46:02;;;;;;;11.52;5.10;;;;;;;;;;5012314;28;20362;-75
2024/01/19 02:48:28;;;;;;;26.88;6.13;;;;;;;;;;5013369;28;20169;-77
2024/01/19 02:50:54;;;;;;;14.23;6.38;;;;;;;;;;5014039;28;20380;-76
2024/01/19 02:53:21;;;;;;;13.75;5.15;;;;;;;;;;5017197;28;20037;-75
2024/01/19 02:55:47;;;;;;;17.83;5.68;;;;;;;;;;4991932;28;20670;-76
2024/01/19 02:58:13;;;;;;;16.45;5.78;;;;;;;;;;4999410;28;20109;-76
2024/01/19 03:00:39;;;;;;;13.45;5.20;;;;;;;;;;5009248;28;20102;-76
2024/01/19 03:03:05;;;;;;;15.35;5.35;;;;;;;;;;5014637;28;20030;-76
2024/01/19 03:05:32;;;;;;;16.45;5.80;;;;;;;;;;5019681;28;20055;-75
2024/01/19 03:07:58;;;;;;;10.52;4.90;;;;;;;;;;5014256;28;20109;-75
2024/01/19 03:10:24;;;;;;;16.88;4.60;;;;;;;;;;5018324;28;20036;-76
2024/01/19 03:12:50;;;;;;;15.52;5.05;;;;;;;;;;4996662;28;20048;-76
2024/01/19 03:15:16;;;;;;;17.25;5.35;;;;;;;;;;5045795;28;20487;-75
2024/01/19 03:17:43;;;;;;;18.30;5.18;;;;;;;;;;5010887;28;20568;-76
2024/01/19 03:20:09;;;;;;;22.85;6.22;;;;;;;;;;5036555;28;20517;-75
2024/01/19 03:22:35;;;;;;;13.48;5.22;;;;;;;;;;5004626;28;20034;-76
2024/01/19 03:25:02;;;;;;;14.73;5.38;;;;;;;;;;5014782;28;20359;-76
2024/01/19 03:27:28;;;;;;;12.00;4.93;;;;;;;;;;5011761;28;20041;-75
2024/01/19 03:29:55;;;;;;;13.10;5.38;;;;;;;;;;5013061;28;20033;-76
2024/01/19 03:32:21;;;;;;;16.60;5.57;;;;;;;;;;5015813;28;20033;-75
2024/01/19 03:34:49;;;;;;;15.55;5.30;;;;;;;;;;4995876;28;20057;-77
2024/01/19 03:37:15;;;;;;;17.73;5.72;;;;;;;;;;5004942;28;20025;-76
2024/01/19 03:39:41;;;;;;;23.38;5.10;;;;;;;;;;5008620;28;20041;-76
2024/01/19 03:42:07;;;;;;;21.13;5.80;;;;;;;;;;5005036;28;20070;-76
2024/01/19 03:44:33;;;;;;;21.85;6.95;;;;;;;;;;5011558;28;20052;-76
2024/01/19 03:46:59;;;;;;;15.20;5.53;;;;;;;;;;4997989;28;20479;-78
2024/01/19 03:49:26;;;;;;;13.93;5.85;;;;;;;;;;5008261;28;20559;-79
2024/01/19 03:52:08;;;;;;;15.27;5.25;;;;;;;;;;5008847;28;20034;-75
2024/01/19 03:54:35;;;;;;;22.10;5.38;;;;;;;;;;5015917;28;20341;-76
2024/01/19 03:57:03;;;;;;;15.73;5.35;;;;;;;;;;5014376;28;20112;-77
2024/01/19 03:59:29;;;;;;;15.43;5.70;;;;;;;;;;5013176;28;20049;-76
2024/01/19 04:01:56;;;;;;;23.92;5.95;;;;;;;;;;5006754;28;20037;-76
2024/01/19 04:04:23;;;;;;;21.38;5.25;;;;;;;;;;5015781;28;20090;-76
2024/01/19 04:06:49;;;;;;;15.98;5.10;;;;;;;;;;5018176;28;20029;-76
2024/01/19 04:09:18;;;;;;;19.52;6.57;;;;;;;;;;5020122;28;20041;-75
2024/01/19 04:11:44;;;;;;;13.02;5.13;;;;;;;;;;5008218;28;20037;-77
2024/01/19 04:14:11;;;;;;;20.92;5.90;;;;;;;;;;5015063;28;20359;-77
2024/01/19 04:16:38;;;;;;;17.33;5.45;;;;;;;;;;5011164;28;20495;-77
2024/01/19 04:19:04;;;;;;;12.18;5.68;;;;;;;;;;5020828;28;20044;-77
2024/01/19 04:21:31;;;;;;;17.42;6.00;;;;;;;;;;5016112;28;20031;-77
2024/01/19 04:23:57;;;;;;;16.05;6.00;;;;;;;;;;5013172;28;20026;-77
2024/01/19 04:26:24;;;;;;;12.80;3.92;;;;;;;;;;5020178;28;20022;-77
2024/01/19 04:28:50;;;;;;;13.90;3.97;;;;;;;;;;5011471;28;20026;-78
2024/01/19 04:31:16;;;;;;;10.40;2.70;;;;;;;;;;5004697;28;20513;-77
2024/01/19 04:33:42;;;;;;;5.55;2.45;;;;;;;;;;5019324;28;20456;-77
2024/01/19 04:36:09;;;;;;;8.82;2.40;;;;;;;;;;5014896;28;20502;-77
2024/01/19 04:38:35;;;;;;;11.38;2.47;;;;;;;;;;5013894;28;20033;-77
2024/01/19 04:41:01;;;;;;;12.23;3.10;;;;;;;;;;5015388;28;20109;-76
2024/01/19 04:43:27;;;;;;;11.63;2.60;;;;;;;;;;5012445;28;20085;-77
2024/01/19 04:45:54;;;;;;;15.13;2.92;;;;;;;;;;5014512;28;20045;-77
2024/01/19 04:48:20;;;;;;;7.93;2.63;;;;;;;;;;5013767;28;20403;-76
2024/01/19 04:50:47;;;;;;;13.80;3.65;;;;;;;;;;5007552;28;20403;-75
2024/01/19 04:53:13;;;;;;;8.80;2.70;;;;;;;;;;5011472;28;20030;-77
2024/01/19 04:55:39;;;;;;;12.90;3.08;;;;;;;;;;5016209;28;20112;-78
2024/01/19 04:58:05;;;;;;;7.47;2.10;;;;;;;;;;5014925;28;20082;-77
2024/01/19 05:00:31;;;;;;;10.20;2.30;;;;;;;;;;5010367;28;20034;-76
2024/01/19 05:03:00;;;;;;;6.53;2.35;;;;;;;;;;5010881;28;20030;-76
2024/01/19 05:05:27;;;;;;;7.57;2.10;;;;;;;;;;5016683;28;20128;-76
2024/01/19 05:07:53;;;;;;;8.05;1.92;;;;;;;;;;5015344;28;20986;-76
2024/01/19 05:10:19;;;;;;;8.68;1.90;;;;;;;;;;5014318;28;20087;-77
2024/01/19 05:12:46;;;;;;;11.80;2.40;;;;;;;;;;5017446;28;20057;-75
2024/01/19 05:15:12;;;;;;;10.55;2.58;;;;;;;;;;5020578;28;20384;-77
2024/01/19 05:17:39;;;;;;;6.20;2.00;;;;;;;;;;5007205;28;20058;-77
2024/01/19 05:20:05;;;;;;;11.25;2.67;;;;;;;;;;5018541;28;20084;-75
2024/01/19 05:22:31;;;;;;;17.27;3.90;;;;;;;;;;5015610;28;20222;-76
2024/01/19 05:24:57;;;;;;;14.48;2.38;;;;;;;;;;5017145;28;20374;-76
2024/01/19 05:27:24;;;;;;;5.78;2.00;;;;;;;;;;5020923;28;20045;-77
2024/01/19 05:29:50;;;;;;;9.30;1.95;;;;;;;;;;5010073;28;20025;-76
2024/01/19 05:32:16;;;;;;;12.45;2.40;;;;;;;;;;5012091;28;20038;-76
2024/01/19 05:34:43;;;;;;;13.55;2.03;;;;;;;;;;5014033;28;20080;-75
2024/01/19 05:37:09;;;;;;;7.57;2.10;;;;;;;;;;5015123;28;20033;-76
2024/01/19 05:39:36;;;;;;;11.85;2.78;;;;;;;;;;5014942;28;20125;-76
2024/01/19 05:42:02;;;;;;;6.60;1.98;;;;;;;;;;5016188;28;20041;-76
2024/01/19 05:44:29;;;;;;;10.00;2.40;;;;;;;;;;5016009;28;20217;-75
2024/01/19 05:46:55;;;;;;;12.07;2.25;;;;;;;;;;5005825;28;20046;-76
2024/01/19 05:49:21;;;;;;;10.20;3.35;;;;;;;;;;5013681;28;20026;-76
2024/01/19 05:51:47;;;;;;;11.80;2.47;;;;;;;;;;5014943;28;20037;-76
2024/01/19 05:54:14;;;;;;;10.43;3.10;;;;;;;;;;4998039;28;20022;-76
2024/01/19 05:56:40;;;;;;;9.27;2.30;;;;;;;;;;5021586;28;20037;-76
2024/01/19 05:59:06;;;;;;;9.82;2.55;;;;;;;;;;5010958;28;20029;-76
2024/01/19 06:01:32;;;;;;;11.88;2.60;;;;;;;;;;5010892;28;20034;-76
2024/01/19 06:03:59;;;;;;;14.48;2.50;;;;;;;;;;5020610;28;20033;-77
2024/01/19 06:06:25;;;;;;;11.50;2.85;;;;;;;;;;5010178;28;20077;-77
2024/01/19 06:08:52;;;;;;;7.75;2.83;;;;;;;;;;5015778;28;20109;-76
2024/01/19 06:11:18;;;;;;;10.38;2.40;;;;;;;;;;5014804;28;20029;-77
2024/01/19 06:13:45;;;;;;;8.18;2.65;;;;;;;;;;5009352;28;20030;-76
2024/01/19 06:16:12;;;;;;;12.82;2.70;;;;;;;;;;5006799;28;20038;-75
2024/01/19 06:18:38;;;;;;;11.68;3.20;;;;;;;;;;4993927;28;20030;-79
2024/01/19 06:21:09;;;;;;;11.60;3.65;;;;;;;;;;5009930;28;20026;-76
2024/01/19 06:23:36;;;;;;;14.73;2.60;;;;;;;;;;5018093;28;20038;-75
2024/01/19 06:26:07;;;;;;;10.82;2.92;;;;;;;;;;5014177;28;20080;-76
2024/01/19 06:28:34;;;;;;;13.70;3.35;;;;;;;;;;5010613;28;20045;-77
2024/01/19 06:31:00;;;;;;;10.65;3.03;;;;;;;;;;5011585;28;20177;-77
2024/01/19 06:33:26;;;;;;;13.10;3.45;;;;;;;;;;5005698;28;20053;-77
2024/01/19 06:35:52;;;;;;;12.55;3.30;;;;;;;;;;5007866;28;20030;-77
2024/01/19 06:38:20;;;;;;;12.20;3.22;;;;;;;;;;5008048;28;20034;-77
2024/01/19 06:40:46;;;;;;;10.50;3.97;;;;;;;;;;5008319;28;20116;-77
2024/01/19 06:43:31;;;;;;;11.90;3.90;;;;;;;;;;5008453;28;20089;-79
2024/01/19 06:45:58;;;;;;;15.38;4.00;;;;;;;;;;5012792;28;20041;-78
2024/01/19 06:48:24;;;;;;;13.00;4.30;;;;;;;;;;5013365;28;20034;-77
2024/01/19 06:50:54;;;;;;;29.05;5.20;;;;;;;;;;5021447;28;20435;-77
2024/01/19 06:53:20;;;;;;;19.92;5.28;;;;;;;;;;5001608;28;20042;-78
2024/01/19 06:55:47;;;;;;;26.15;6.53;;;;;;;;;;5018004;28;20086;-78
2024/01/19 06:58:13;;;;;;;18.60;4.93;;;;;;;;;;5017324;28;20120;-79
2024/01/19 07:00:39;;;;;;;20.20;5.85;;;;;;;;;;5018103;28;20099;-77
2024/01/19 07:03:05;;;;;;;18.67;6.18;;;;;;;;;;5013926;28;20034;-76
2024/01/19 07:05:32;;;;;;;21.08;5.07;;;;;;;;;;5018401;28;20038;-77
2024/01/19 07:07:58;;;;;;;22.60;5.95;;;;;;;;;;5002520;28;20066;-78
2024/01/19 07:10:25;;;;;;;21.52;6.32;;;;;;;;;;5018108;28;20036;-77
2024/01/19 07:12:51;;;;;;;13.93;5.50;;;;;;;;;;5014765;28;20061;-77
2024/01/19 07:15:17;;;;;;;26.15;5.60;;;;;;;;;;5007672;28;20033;-76
2024/01/19 07:17:43;;;;;;;20.13;6.40;;;;;;;;;;5011382;28;20049;-77
2024/01/19 07:20:11;;;;;;;29.85;9.07;;;;;;;;;;5014123;28;20179;-76
2024/01/19 07:22:37;;;;;;;23.67;8.93;;;;;;;;;;5013874;28;20080;-76
2024/01/19 07:25:03;;;;;;;23.92;8.90;;;;;;;;;;4999173;28;20034;-77
2024/01/19 07:27:30;;;;;;;30.92;9.65;;;;;;;;;;5004971;28;20111;-77
2024/01/19 07:29:56;;;;;;;29.10;10.32;;;;;;;;;;5000389;28;20041;-76
2024/01/19 07:32:24;;;;;;;26.65;10.40;;;;;;;;;;5008582;28;20037;-78
2024/01/19 07:34:51;;;;;;;28.42;10.90;;;;;;;;;;5011676;28;20029;-78
2024/01/19 07:37:17;;;;;;;29.23;10.95;;;;;;;;;;5018236;28;20040;-76
2024/01/19 07:39:43;;;;;;;33.83;13.23;;;;;;;;;;5007989;28;20065;-77
2024/01/19 07:42:09;;;;;;;39.10;13.45;;;;;;;;;;5008090;28;20447;-77
2024/01/19 07:44:36;;;;;;;26.17;11.32;;;;;;;;;;5005662;28;20487;-76
2024/01/19 07:47:02;;;;;;;42.90;13.43;;;;;;;;;;5004931;28;20128;-77
2024/01/19 07:49:28;;;;;;;39.88;13.70;;;;;;;;;;5006678;28;20037;-76
2024/01/19 07:51:54;;;;;;;30.50;13.40;;;;;;;;;;5019793;28;20037;-78
2024/01/19 07:54:21;;;;;;;29.50;12.02;;;;;;;;;;5018143;28;20065;-76
2024/01/19 07:56:47;;;;;;;31.42;13.73;;;;;;;;;;5010111;28;20033;-77
2024/01/19 07:59:13;;;;;;;34.70;12.15;;;;;;;;;;5001328;28;20030;-76
2024/01/19 08:01:39;;;;;;;36.13;13.00;;;;;;;;;;5009392;28;20112;-76
2024/01/19 08:04:06;;;;;;;30.25;11.95;;;;;;;;;;5009657;28;20980;-76
2024/01/19 08:06:32;;;;;;;34.30;14.18;;;;;;;;;;5015200;28;20043;-78
2024/01/19 08:08:58;;;;;;;33.38;14.20;;;;;;;;;;5017738;28;20022;-76
2024/01/19 08:11:24;;;;;;;36.30;13.75;;;;;;;;;;5029733;28;20052;-78
2024/01/19 08:13:51;;;;;;;34.20;13.18;;;;;;;;;;5013214;28;20038;-77
2024/01/19 08:16:19;;;;;;;34.15;13.98;;;;;;;;;;5009271;28;20053;-78
2024/01/19 08:18:45;;;;;;;34.28;14.40;;;;;;;;;;5010093;28;20026;-77
2024/01/19 08:21:11;;;;;;;33.03;14.73;;;;;;;;;;5015598;28;20036;-77
2024/01/19 08:23:38;;;;;;;35.83;14.50;;;;;;;;;;5016898;28;20065;-76
2024/01/19 08:26:08;;;;;;;36.00;14.65;;;;;;;;;;5009179;28;20041;-77
2024/01/19 08:28:35;;;;;;;44.15;14.27;;;;;;;;;;5010560;28;20168;-78
2024/01/19 08:31:02;;;;;;;40.20;16.13;;;;;;;;;;5011605;28;20083;-77
2024/01/19 08:33:28;;;;;;;33.22;14.50;;;;;;;;;;5007262;28;20543;-77
2024/01/19 08:35:54;;;;;;;33.67;15.38;;;;;;;;;;5016900;28;20072;-76
2024/01/19 08:38:21;;;;;;;37.42;15.75;;;;;;;;;;5016210;28;20022;-77
2024/01/19 08:40:47;;;;;;;34.80;16.50;;;;;;;;;;5008603;28;20026;-77
2024/01/19 08:43:13;;;;;;;39.67;16.88;;;;;;;;;;4987657;28;20042;-76
2024/01/19 08:45:39;;;;;;;43.28;17.48;;;;;;;;;;5008233;28;20175;-77
2024/01/19 08:48:05;;;;;;;39.45;17.38;;;;;;;;;;5006801;28;20245;-76
2024/01/19 08:50:31;;;;;;;38.75;16.90;;;;;;;;;;5007916;28;20034;-77
2024/01/19 08:52:58;;;;;;;42.13;15.90;;;;;;;;;;4991939;28;20038;-79
2024/01/19 08:55:25;;;;;;;31.73;17.27;;;;;;;;;;4994291;28;20042;-77
2024/01/19 08:57:51;;;;;;;40.92;15.70;;;;;;;;;;5005231;28;20038;-76
2024/01/19 09:00:17;;;;;;;35.75;16.27;;;;;;;;;;5012422;28;20083;-78
2024/01/19 09:02:47;;;;;;;31.45;14.23;;;;;;;;;;5009377;28;20041;-77
2024/01/19 09:05:13;;;;;;;26.55;15.60;;;;;;;;;;5010156;28;20029;-78
2024/01/19 09:07:40;;;;;;;24.10;13.63;;;;;;;;;;5010670;28;20135;-76
2024/01/19 09:10:07;;;;;;;31.15;14.80;;;;;;;;;;5000267;28;20038;-77
2024/01/19 09:12:33;;;;;;;29.17;14.15;;;;;;;;;;5003824;28;20045;-78
2024/01/19 09:15:00;;;;;;;29.83;14.75;;;;;;;;;;5003380;28;20088;-77
2024/01/19 09:17:26;;;;;;;33.92;14.27;;;;;;;;;;4995968;28;20042;-75
2024/01/19 09:19:52;;;;;;;32.10;15.02;;;;;;;;;;5015142;28;20103;-76
2024/01/19 09:22:18;;;;;;;30.40;14.23;;;;;;;;;;5001629;28;20038;-78
2024/01/19 09:24:46;;;;;;;31.05;13.55;;;;;;;;;;5003136;28;20062;-77
2024/01/19 09:27:12;;;;;;;27.45;13.50;;;;;;;;;;5005352;28;20080;-77
2024/01/19 09:29:40;;;;;;;25.95;13.20;;;;;;;;;;4994782;28;20093;-77
2024/01/19 09:32:06;;;;;;;33.17;13.60;;;;;;;;;;5001332;28;20042;-76
2024/01/19 09:34:32;;;;;;;20.52;12.65;;;;;;;;;;5002321;28;20030;-76
2024/01/19 09:36:58;;;;;;;26.98;12.63;;;;;;;;;;4998740;28;20019;-76
2024/01/19 09:39:24;;;;;;;43.85;12.82;;;;;;;;;;5010458;28;20068;-76
2024/01/19 09:41:52;;;;;;;28.65;11.43;;;;;;;;;;5010115;28;20048;-76
2024/01/19 09:44:20;;;;;;;28.63;13.48;;;;;;;;;;5003646;28;20030;-77
2024/01/19 09:46:46;;;;;;;24.13;11.63;;;;;;;;;;5005998;28;20038;-76
2024/01/19 09:49:26;;;;;;;28.88;12.30;;;;;;;;;;4992054;28;20037;-76
2024/01/19 09:51:55;;;;;;;28.95;11.25;;;;;;;;;;5005787;28;20026;-76
2024/01/19 09:54:26;;;;;;;24.88;11.65;;;;;;;;;;4996352;28;20026;-76
2024/01/19 09:56:53;;;;;;;21.10;10.60;;;;;;;;;;5006566;28;20027;-76
2024/01/19 09:59:20;;;;;;;23.98;11.52;;;;;;;;;;5018713;28;20042;-77
2024/01/19 10:01:48;;;;;;;25.50;11.50;;;;;;;;;;5012674;28;20098;-76
2024/01/19 10:04:14;;;;;;;23.60;11.75;;;;;;;;;;5012932;28;20053;-77
2024/01/19 10:06:42;;;;;;;34.50;11.13;;;;;;;;;;5011993;28;20030;-78
2024/01/19 10:09:10;;;;;;;21.05;10.25;;;;;;;;;;5010200;28;20053;-76
2024/01/19 10:11:37;;;;;;;22.08;9.73;;;;;;;;;;5012622;28;20125;-76
2024/01/19 10:14:03;;;;;;;23.05;10.73;;;;;;;;;;5010478;28;20053;-75
2024/01/19 10:16:32;;;;;;;23.02;9.80;;;;;;;;;;5035398;28;20046;-76
2024/01/19 10:18:59;;;;;;;19.70;8.20;;;;;;;;;;5014810;28;20038;-76
2024/01/19 10:21:29;;;;;;;18.67;8.50;;;;;;;;;;5011402;28;20407;-77
2024/01/19 10:24:09;;;;;;;21.70;8.27;;;;;;;;;;5004973;28;20061;-77
2024/01/19 10:26:39;;;;;;;20.27;8.90;;;;;;;;;;5011184;28;20042;-77
2024/01/19 10:29:17;;;;;;;23.25;9.18;;;;;;;;;;5008635;28;20491;-77
2024/01/19 10:31:47;;;;;;;22.92;9.90;;;;;;;;;;4985428;28;20049;-77
2024/01/19 10:34:17;;;;;;;18.23;7.78;;;;;;;;;;5011862;28;20105;-76
2024/01/19 10:36:44;;;;;;;33.15;10.13;;;;;;;;;;5010239;28;20063;-77
2024/01/19 10:39:20;;;;;;;24.48;9.65;;;;;;;;;;5014077;28;20343;-77
2024/01/19 10:41:46;;;;;;;23.95;11.07;;;;;;;;;;5003939;28;20105;-77
2024/01/19 10:44:14;;;;;;;32.60;10.30;;;;;;;;;;5000023;28;20375;-76
2024/01/19 10:46:40;;;;;;;23.77;9.80;;;;;;;;;;5000728;28;21082;-77
2024/01/19 10:49:07;;;;;;;28.60;10.32;;;;;;;;;;4988003;28;20030;-77
2024/01/19 10:51:44;;;;;;;25.42;9.95;;;;;;;;;;4997934;28;20034;-78
2024/01/19 10:54:17;;;;;;;27.70;10.07;;;;;;;;;;5007676;28;20052;-81
2024/01/19 10:56:46;;;;;;;30.65;11.25;;;;;;;;;;5009601;28;20071;-80
2024/01/19 10:59:14;;;;;;;31.35;10.85;;;;;;;;;;5014773;28;20520;-78
2024/01/19 11:01:40;;;;;;;36.08;11.52;;;;;;;;;;4999070;28;20387;-77
2024/01/19 11:04:08;;;;;;;27.00;11.93;;;;;;;;;;5007969;28;20030;-77
2024/01/19 11:06:36;;;;;;;19.08;8.88;;;;;;;;;;5019082;28;20036;-77
2024/01/19 11:09:03;;;;;;;16.88;8.88;;;;;;;;;;5019018;28;20022;-77
2024/01/19 11:11:31;;;;;;;23.98;9.13;;;;;;;;;;5007086;28;20145;-77
2024/01/19 11:14:00;;;;;;;38.42;9.10;;;;;;;;;;5001804;28;20495;-77
2024/01/19 11:16:28;;;;;;;15.68;8.15;;;;;;;;;;4994274;28;20111;-77
2024/01/19 11:18:55;;;;;;;18.02;8.30;;;;;;;;;;5003344;28;20042;-77
2024/01/19 11:21:24;;;;;;;30.77;9.02;;;;;;;;;;4998838;28;20049;-77
2024/01/19 11:23:50;;;;;;;24.27;8.40;;;;;;;;;;4995379;28;20112;-78
2024/01/19 11:26:35;;;;;;;23.77;9.27;;;;;;;;;;5007059;28;20048;-77
2024/01/19 11:29:04;;;;;;;26.30;8.45;;;;;;;;;;5000250;28;20030;-78
2024/01/19 11:31:32;;;;;;;28.95;9.45;;;;;;;;;;5007622;28;20021;-78
2024/01/19 11:33:59;;;;;;;23.58;8.00;;;;;;;;;;5004216;28;20026;-77
2024/01/19 11:36:41;;;;;;;22.00;8.85;;;;;;;;;;5007506;28;20034;-79
2024/01/19 11:39:13;;;;;;;21.15;7.50;;;;;;;;;;4998820;28;20620;-77
2024/01/19 11:41:41;;;;;;;20.30;7.25;;;;;;;;;;4997254;28;20423;-77
2024/01/19 11:44:09;;;;;;;20.25;7.72;;;;;;;;;;5009011;28;20036;-78
2024/01/19 11:46:44;;;;;;;18.83;7.40;;;;;;;;;;5008501;28;20033;-79
2024/01/19 11:49:30;;;;;;;22.10;6.85;;;;;;;;;;5005062;28;20123;-77
2024/01/19 11:51:56;;;;;;;26.90;7.53;;;;;;;;;;5007704;28;20064;-77
2024/01/19 11:54:29;;;;;;;24.15;6.82;;;;;;;;;;5000576;28;20058;-78
2024/01/19 11:57:15;;;;;;;24.40;6.70;;;;;;;;;;4989616;28;20023;-76
2024/01/19 11:59:41;;;;;;;25.42;7.47;;;;;;;;;;5003096;28;20044;-77
2024/01/19 12:02:08;;;;;;;19.48;6.78;;;;;;;;;;5001112;28;20057;-76
2024/01/19 12:04:34;;;;;;;28.90;7.78;;;;;;;;;;4995406;28;20069;-78
2024/01/19 12:07:06;;;;;;;19.23;7.15;;;;;;;;;;4994136;28;20372;-78
2024/01/19 12:09:33;;;;;;;33.40;8.48;;;;;;;;;;5000323;28;20100;-77
2024/01/19 12:11:59;;;;;;;18.92;8.15;;;;;;;;;;5005776;28;20045;-79
2024/01/19 12:14:25;;;;;;;22.80;7.00;;;;;;;;;;5006010;28;20034;-78
2024/01/19 12:16:51;;;;;;;17.90;7.25;;;;;;;;;;4998992;28;20070;-77
2024/01/19 12:19:21;;;;;;;20.27;6.75;;;;;;;;;;5009812;28;20508;-77
2024/01/19 12:21:48;;;;;;;16.65;6.38;;;;;;;;;;4993528;28;20026;-78
2024/01/19 12:24:19;;;;;;;23.42;6.13;;;;;;;;;;5002448;28;20037;-79
2024/01/19 12:26:55;;;;;;;15.32;6.07;;;;;;;;;;5001900;28;20137;-79
2024/01/19 12:29:36;;;;;;;13.43;4.63;;;;;;;;;;5004528;28;20112;-79
2024/01/19 12:32:09;;;;;;;13.13;4.28;;;;;;;;;;5006694;28;20088;-77
2024/01/19 12:34:35;;;;;;;16.42;4.80;;;;;;;;;;5007010;28;20069;-77
2024/01/19 12:37:02;;;;;;;13.13;3.75;;;;;;;;;;5005033;28;20033;-77
2024/01/19 12:39:28;;;;;;;22.52;4.10;;;;;;;;;;5014667;28;20030;-78
2024/01/19 12:42:08;;;;;;;13.70;3.72;;;;;;;;;;5009428;28;20025;-77
2024/01/19 12:44:35;;;;;;;20.70;3.47;;;;;;;;;;4997974;28;20046;-77
2024/01/19 12:47:01;;;;;;;11.25;3.30;;;;;;;;;;5007585;28;20046;-77
2024/01/19 12:49:27;;;;;;;13.88;3.63;;;;;;;;;;5015160;28;20034;-77
2024/01/19 12:51:54;;;;;;;14.30;3.42;;;;;;;;;;5010821;28;20506;-77
2024/01/19 12:54:20;;;;;;;18.40;4.30;;;;;;;;;;5013893;28;20030;-78
2024/01/19 12:56:49;;;;;;;15.65;3.90;;;;;;;;;;5014669;28;20152;-76
2024/01/19 12:59:19;;;;;;;10.05;3.72;;;;;;;;;;4998907;28;20033;-77
2024/01/19 13:01:46;;;;;;;15.45;3.83;;;;;;;;;;5005785;28;20030;-77
2024/01/19 13:04:14;;;;;;;11.10;3.30;;;;;;;;;;4998511;28;20710;-77
2024/01/19 13:06:41;;;;;;;15.52;4.22;;;;;;;;;;5005947;28;20029;-78
2024/01/19 13:09:09;;;;;;;10.98;3.97;;;;;;;;;;4998470;28;20054;-78
2024/01/19 13:11:35;;;;;;;14.30;3.88;;;;;;;;;;4991083;28;20037;-80
2024/01/19 13:14:03;;;;;;;13.55;4.68;;;;;;;;;;5007868;28;20042;-76
2024/01/19 13:16:29;;;;;;;12.63;4.03;;;;;;;;;;5007902;28;20530;-77
2024/01/19 13:19:02;;;;;;;9.73;4.40;;;;;;;;;;5006901;28;20413;-77
2024/01/19 13:21:30;;;;;;;13.35;4.57;;;;;;;;;;4990807;28;20041;-77
2024/01/19 13:23:57;;;;;;;10.85;4.15;;;;;;;;;;5009779;28;20078;-76
2024/01/19 13:26:24;;;;;;;14.65;4.28;;;;;;;;;;5001285;28;20100;-76
2024/01/19 13:28:51;;;;;;;13.70;4.80;;;;;;;;;;4991906;28;20039;-77
2024/01/19 13:31:17;;;;;;;11.73;4.55;;;;;;;;;;5006099;28;20118;-76
2024/01/19 13:33:44;;;;;;;11.23;4.95;;;;;;;;;;4991509;28;20045;-76
2024/01/19 13:36:14;;;;;;;10.02;4.75;;;;;;;;;;5008901;28;20392;-76
2024/01/19 13:38:41;;;;;;;12.88;4.72;;;;;;;;;;5022619;28;20045;-76
2024/01/19 13:41:09;;;;;;;16.30;4.53;;;;;;;;;;4999124;28;20036;-77
2024/01/19 13:43:35;;;;;;;9.50;4.95;;;;;;;;;;5007171;28;20042;-76
2024/01/19 13:46:02;;;;;;;8.30;4.50;;;;;;;;;;5002437;28;20451;-76
2024/01/19 13:48:28;;;;;;;16.77;6.00;;;;;;;;;;4999303;28;20050;-76
2024/01/19 13:50:55;;;;;;;11.23;4.38;;;;;;;;;;5008595;28;20044;-76
2024/01/19 13:53:21;;;;;;;12.68;4.88;;;;;;;;;;5001044;28;20038;-77
2024/01/19 13:55:48;;;;;;;11.98;4.95;;;;;;;;;;5037612;28;20026;-78
2024/01/19 13:58:14;;;;;;;9.98;4.88;;;;;;;;;;5007656;28;20065;-76
2024/01/19 14:00:40;;;;;;;12.45;4.57;;;;;;;;;;5003406;28;20022;-77
2024/01/19 14:03:07;;;;;;;12.95;4.70;;;;;;;;;;4993172;28;20018;-76
2024/01/19 14:05:34;;;;;;;10.57;4.68;;;;;;;;;;4992517;28;20030;-75
2024/01/19 14:08:00;;;;;;;15.00;5.35;;;;;;;;;;5001681;28;20476;-76
2024/01/19 14:10:27;;;;;;;14.50;4.90;;;;;;;;;;5005965;28;20100;-76
2024/01/19 14:12:53;;;;;;;14.48;4.88;;;;;;;;;;5006411;28;20046;-78
2024/01/19 14:15:19;;;;;;;12.43;4.13;;;;;;;;;;5010092;28;20484;-77
2024/01/19 14:17:46;;;;;;;9.40;3.97;;;;;;;;;;5004525;28;20495;-78
2024/01/19 14:20:12;;;;;;;13.00;4.60;;;;;;;;;;5015181;28;20379;-76
2024/01/19 14:22:42;;;;;;;12.85;4.57;;;;;;;;;;5011983;28;20042;-78
2024/01/19 14:25:08;;;;;;;12.93;4.38;;;;;;;;;;5006081;28;20446;-76
2024/01/19 14:27:35;;;;;;;13.30;4.72;;;;;;;;;;4991884;28;20056;-76
2024/01/19 14:30:02;;;;;;;12.98;4.25;;;;;;;;;;5006375;28;20112;-76